PWSweather.com
Personal Weather Stations
Station Observations
PD3RFR
Maarssenbroek, MaarssenNL 3607 KV

MaarssenbroekMaarssenNL 3607 KV

Lat: 52.1385564, Lon: 5.0196136

Elevation: 18

Station Type: Alecto WS-4000

Latest ConditionsUpdated 3:10:06 PM GMT+01:01 Sunday, Jul 21, 2019
Currently Today's Max Today's Min Today's Average
Temperature 77.2°F25.1°C 79.7°F26.5°C 62.6°F17.0°C 69.4°F20.8°C
Dew Point 46.7°F8.2°C 63.8°F17.7°C 45.5°F7.5°C 56.5°F13.6°C
Winds 1.9 mph NW3.1 kmh NW 2.9 mph -4.7 kmh - - 0.9 mph 1.4 kmh
Wind Gusts 8.3 mph13.4 kmh 11.4 mph18.3 kmh - -
Humidity 34% 99% 31% 69%
Pressure 30.07 in1018.3 mb 30.07 in1018.3 mb 29.82 in1009.8 mb -
Hour Temp Dew Point Humidity Winds Wind Gusts Pressure Precip Precip Rate Daily Precip Total
03:10 PM 77.2°F25.1°C 46.7°F8.2°C 34% 1.9 mph NW3.1 kmh NW 8.3 mph13.4 kmh 30.07 in1018.3 mb 0.00 in0.0 mm 0.00 in0.0 mm 0.00 in0.0 mm
03:00 PM 77.7°F25.4°C 45.5°F7.5°C 32% 2.2 mph NW3.5 kmh NW 9.2 mph14.8 kmh 30.07 in1018.3 mb 0.00 in0.0 mm 0.00 in0.0 mm 0.00 in0.0 mm
02:50 PM 79.5°F26.4°C 46.3°F7.9°C 31% 1.8 mph S2.9 kmh S 6.0 mph9.7 kmh 30.07 in1018.3 mb 0.00 in0.0 mm 0.00 in0.0 mm 0.00 in0.0 mm
02:40 PM 79.5°F26.4°C 47.9°F8.8°C 33% 1.6 mph W2.6 kmh W 6.0 mph9.7 kmh 30.07 in1018.3 mb 0.00 in0.0 mm 0.00 in0.0 mm 0.00 in0.0 mm
02:30 PM 78.3°F25.7°C 46.8°F8.2°C 33% 2.1 mph S3.4 kmh S 7.6 mph12.2 kmh 30.07 in1018.3 mb 0.00 in0.0 mm 0.00 in0.0 mm 0.00 in0.0 mm
02:20 PM 78.4°F25.8°C 46.2°F7.9°C 32% 2.5 mph SW4.0 kmh SW 7.6 mph12.2 kmh 30.06 in1017.9 mb 0.00 in0.0 mm 0.00 in0.0 mm 0.00 in0.0 mm
02:10 PM 79.3°F26.3°C 47.8°F8.8°C 33% 2.5 mph NW4.0 kmh NW 6.0 mph9.7 kmh 30.06 in1017.9 mb 0.00 in0.0 mm 0.00 in0.0 mm 0.00 in0.0 mm
02:00 PM 79.3°F26.3°C 46.1°F7.8°C 31% 1.7 mph SE2.7 kmh SE 7.6 mph12.2 kmh 30.06 in1017.9 mb 0.00 in0.0 mm 0.00 in0.0 mm 0.00 in0.0 mm
01:50 PM 79.0°F26.1°C 47.5°F8.6°C 33% 2.1 mph SE3.4 kmh SE 7.6 mph12.2 kmh 30.06 in1017.9 mb 0.00 in0.0 mm 0.00 in0.0 mm 0.00 in0.0 mm
01:40 PM 79.7°F26.5°C 47.3°F8.5°C 32% 1.6 mph SE2.6 kmh SE 7.6 mph12.2 kmh 30.06 in1017.9 mb 0.00 in0.0 mm 0.00 in0.0 mm 0.00 in0.0 mm
01:30 PM 78.8°F26.0°C 48.9°F9.4°C 35% 1.8 mph E2.9 kmh E 6.0 mph9.7 kmh 30.05 in1017.6 mb 0.00 in0.0 mm 0.00 in0.0 mm 0.00 in0.0 mm
01:20 PM 78.1°F25.6°C 48.2°F9.0°C 35% 2.4 mph SE3.9 kmh SE 9.8 mph15.8 kmh 30.05 in1017.6 mb 0.00 in0.0 mm 0.00 in0.0 mm 0.00 in0.0 mm
01:10 PM 77.9°F25.5°C 48.8°F9.3°C 36% 2.8 mph S4.5 kmh S 6.9 mph11.1 kmh 30.05 in1017.6 mb 0.00 in0.0 mm 0.00 in0.0 mm 0.00 in0.0 mm
01:00 PM 77.4°F25.2°C 49.1°F9.5°C 37% 2.5 mph NE4.0 kmh NE 11.4 mph18.3 kmh 30.05 in1017.6 mb 0.00 in0.0 mm 0.00 in0.0 mm 0.00 in0.0 mm
12:50 PM 77.9°F25.5°C 50.3°F10.2°C 38% 1.9 mph SE3.1 kmh SE 9.2 mph14.8 kmh 30.05 in1017.6 mb 0.00 in0.0 mm 0.00 in0.0 mm 0.00 in0.0 mm
12:40 PM 77.7°F25.4°C 50.1°F10.1°C 38% 1.8 mph NE2.9 kmh NE 9.2 mph14.8 kmh 30.05 in1017.6 mb 0.00 in0.0 mm 0.00 in0.0 mm 0.00 in0.0 mm
12:30 PM 77.0°F25.0°C 50.2°F10.1°C 39% 2.0 mph E3.2 kmh E 9.8 mph15.8 kmh 30.05 in1017.6 mb 0.00 in0.0 mm 0.00 in0.0 mm 0.00 in0.0 mm
12:20 PM 76.6°F24.8°C 49.2°F9.6°C 38% 2.1 mph W3.4 kmh W 6.9 mph11.1 kmh 30.05 in1017.6 mb 0.00 in0.0 mm 0.00 in0.0 mm 0.00 in0.0 mm
12:10 PM 76.1°F24.5°C 50.1°F10.1°C 40% 1.7 mph E2.7 kmh E 7.6 mph12.2 kmh 30.04 in1017.3 mb 0.00 in0.0 mm 0.00 in0.0 mm 0.00 in0.0 mm
12:00 PM 75.6°F24.2°C 50.9°F10.5°C 42% 1.7 mph ESE2.7 kmh ESE 9.2 mph14.8 kmh 30.04 in1017.3 mb 0.00 in0.0 mm 0.00 in0.0 mm 0.00 in0.0 mm
11:50 AM 75.4°F24.1°C 49.4°F9.7°C 40% 2.1 mph SE3.4 kmh SE 9.2 mph14.8 kmh 30.04 in1017.3 mb 0.00 in0.0 mm 0.00 in0.0 mm 0.00 in0.0 mm
11:40 AM 75.9°F24.4°C 49.9°F9.9°C 40% 2.1 mph ESE3.4 kmh ESE 7.6 mph12.2 kmh 30.03 in1016.9 mb 0.00 in0.0 mm 0.00 in0.0 mm 0.00 in0.0 mm
11:30 AM 75.7°F24.3°C 51.7°F10.9°C 43% 1.8 mph SW2.9 kmh SW 10.7 mph17.2 kmh 30.03 in1016.9 mb 0.00 in0.0 mm 0.00 in0.0 mm 0.00 in0.0 mm
11:20 AM 75.4°F24.1°C 50.1°F10.1°C 41% 1.8 mph E2.9 kmh E 7.6 mph12.2 kmh 30.02 in1016.6 mb 0.00 in0.0 mm 0.00 in0.0 mm 0.00 in0.0 mm
11:10 AM 75.4°F24.1°C 48.7°F9.3°C 39% 1.8 mph SE2.9 kmh SE 7.6 mph12.2 kmh 30.02 in1016.6 mb 0.00 in0.0 mm 0.00 in0.0 mm 0.00 in0.0 mm
11:00 AM 75.4°F24.1°C 50.1°F10.1°C 41% 2.0 mph S3.2 kmh S 9.8 mph15.8 kmh 30.02 in1016.6 mb 0.00 in0.0 mm 0.00 in0.0 mm 0.00 in0.0 mm
10:50 AM 75.2°F24.0°C 51.2°F10.7°C 43% 1.3 mph SE2.1 kmh SE 6.9 mph11.1 kmh 30.02 in1016.6 mb 0.00 in0.0 mm 0.00 in0.0 mm 0.00 in0.0 mm
10:40 AM 74.8°F23.8°C 52.1°F11.2°C 45% 1.8 mph SE2.9 kmh SE 8.3 mph13.4 kmh 30.02 in1016.6 mb 0.00 in0.0 mm 0.00 in0.0 mm 0.00 in0.0 mm
10:30 AM 74.7°F23.7°C 51.3°F10.7°C 44% 1.9 mph E3.1 kmh E 10.7 mph17.2 kmh 30.02 in1016.6 mb 0.00 in0.0 mm 0.00 in0.0 mm 0.00 in0.0 mm
10:20 AM 73.6°F23.1°C 51.6°F10.9°C 46% 2.2 mph ESE3.5 kmh ESE 9.8 mph15.8 kmh 30.01 in1016.3 mb 0.00 in0.0 mm 0.00 in0.0 mm 0.00 in0.0 mm
10:10 AM 73.2°F22.9°C 50.6°F10.3°C 45% 2.9 mph S4.7 kmh S 8.3 mph13.4 kmh 30.01 in1016.3 mb 0.00 in0.0 mm 0.00 in0.0 mm 0.00 in0.0 mm
10:00 AM 73.0°F22.8°C 52.2°F11.2°C 48% 1.6 mph S2.6 kmh S 8.3 mph13.4 kmh 30.00 in1015.9 mb 0.00 in0.0 mm 0.00 in0.0 mm 0.00 in0.0 mm
09:50 AM 72.7°F22.6°C 52.4°F11.3°C 49% 1.5 mph SSW2.4 kmh SSW 6.0 mph9.7 kmh 30.01 in1016.3 mb 0.00 in0.0 mm 0.00 in0.0 mm 0.00 in0.0 mm
09:40 AM 72.5°F22.5°C 52.8°F11.6°C 50% 2.0 mph E3.2 kmh E 7.6 mph12.2 kmh 30.00 in1015.9 mb 0.00 in0.0 mm 0.00 in0.0 mm 0.00 in0.0 mm
09:30 AM 73.6°F23.1°C 54.4°F12.4°C 51% 1.2 mph ESE1.9 kmh ESE 6.0 mph9.7 kmh 30.00 in1015.9 mb 0.00 in0.0 mm 0.00 in0.0 mm 0.00 in0.0 mm
09:20 AM 72.3°F22.4°C 54.3°F12.4°C 53% 1.5 mph ESE2.4 kmh ESE 6.0 mph9.7 kmh 29.99 in1015.6 mb 0.00 in0.0 mm 0.00 in0.0 mm 0.00 in0.0 mm
09:10 AM 72.5°F22.5°C 54.9°F12.7°C 54% 1.6 mph E2.6 kmh E 6.0 mph9.7 kmh 29.99 in1015.6 mb 0.00 in0.0 mm 0.00 in0.0 mm 0.00 in0.0 mm
09:00 AM 71.4°F21.9°C 54.9°F12.7°C 56% 1.5 mph E2.4 kmh E 7.6 mph12.2 kmh 29.99 in1015.6 mb 0.00 in0.0 mm 0.00 in0.0 mm 0.00 in0.0 mm
08:50 AM 70.5°F21.4°C 54.6°F12.6°C 57% 1.8 mph E2.9 kmh E 6.9 mph11.1 kmh 29.99 in1015.6 mb 0.00 in0.0 mm 0.00 in0.0 mm 0.00 in0.0 mm
08:40 AM 69.8°F21.0°C 55.3°F12.9°C 60% 1.0 mph E1.6 kmh E 6.9 mph11.1 kmh 29.98 in1015.2 mb 0.00 in0.0 mm 0.00 in0.0 mm 0.00 in0.0 mm
08:30 AM 70.0°F21.1°C 56.4°F13.6°C 62% 1.1 mph SE1.8 kmh SE 6.0 mph9.7 kmh 29.98 in1015.2 mb 0.00 in0.0 mm 0.00 in0.0 mm 0.00 in0.0 mm
08:20 AM 70.0°F21.1°C 56.8°F13.8°C 63% 1.4 mph E2.3 kmh E 9.8 mph15.8 kmh 29.98 in1015.2 mb 0.00 in0.0 mm 0.00 in0.0 mm 0.00 in0.0 mm
08:10 AM 69.6°F20.9°C 57.8°F14.3°C 66% 0.7 mph E1.1 kmh E 3.1 mph5.0 kmh 29.97 in1014.9 mb 0.00 in0.0 mm 0.00 in0.0 mm 0.00 in0.0 mm
08:00 AM 67.8°F19.9°C 57.7°F14.3°C 70% 0.8 mph SE1.3 kmh SE 6.9 mph11.1 kmh 29.97 in1014.9 mb 0.00 in0.0 mm 0.00 in0.0 mm 0.00 in0.0 mm
07:50 AM 67.1°F19.5°C 58.2°F14.6°C 73% 0.4 mph SW0.6 kmh SW 3.8 mph6.1 kmh 29.97 in1014.9 mb 0.00 in0.0 mm 0.00 in0.0 mm 0.00 in0.0 mm
07:40 AM 67.1°F19.5°C 58.9°F14.9°C 75% 0.3 mph ESE0.5 kmh ESE 6.0 mph9.7 kmh 29.97 in1014.9 mb 0.00 in0.0 mm 0.00 in0.0 mm 0.00 in0.0 mm
07:30 AM 66.9°F19.4°C 58.4°F14.7°C 74% 0.9 mph E1.4 kmh E 6.0 mph9.7 kmh 29.97 in1014.9 mb 0.00 in0.0 mm 0.00 in0.0 mm 0.00 in0.0 mm
07:20 AM 66.6°F19.2°C 59.5°F15.3°C 78% 0.4 mph S0.6 kmh S 3.8 mph6.1 kmh 29.96 in1014.6 mb 0.00 in0.0 mm 0.00 in0.0 mm 0.00 in0.0 mm
07:10 AM 66.4°F19.1°C 60.0°F15.6°C 80% 0.1 mph SE0.2 kmh SE 3.8 mph6.1 kmh 29.96 in1014.6 mb 0.00 in0.0 mm 0.00 in0.0 mm 0.00 in0.0 mm
07:00 AM 65.8°F18.8°C 60.6°F15.9°C 83% 0.5 mph S0.8 kmh S 6.0 mph9.7 kmh 29.96 in1014.6 mb 0.00 in0.0 mm 0.00 in0.0 mm 0.00 in0.0 mm
06:50 AM 65.3°F18.5°C 60.7°F15.9°C 85% 0.6 mph SE1.0 kmh SE 4.5 mph7.2 kmh 29.95 in1014.2 mb 0.00 in0.0 mm 0.00 in0.0 mm 0.00 in0.0 mm
06:40 AM 65.1°F18.4°C 61.5°F16.4°C 88% 0.6 mph SE1.0 kmh SE 4.5 mph7.2 kmh 29.95 in1014.2 mb 0.00 in0.0 mm 0.00 in0.0 mm 0.00 in0.0 mm
06:30 AM 64.8°F18.2°C 62.7°F17.1°C 93% Calm Calm 3.1 mph5.0 kmh 29.94 in1013.9 mb 0.00 in0.0 mm 0.00 in0.0 mm 0.00 in0.0 mm
06:20 AM 64.2°F17.9°C 62.8°F17.1°C 95% 0.1 mph SSW0.2 kmh SSW 3.8 mph6.1 kmh 29.94 in1013.9 mb 0.00 in0.0 mm 0.00 in0.0 mm 0.00 in0.0 mm
06:10 AM 64.0°F17.8°C 63.2°F17.3°C 97% Calm Calm 2.2 mph3.5 kmh 29.94 in1013.9 mb 0.00 in0.0 mm 0.00 in0.0 mm 0.00 in0.0 mm
06:00 AM 63.7°F17.6°C 63.4°F17.4°C 99% 0.1 mph S0.2 kmh S 1.6 mph2.6 kmh 29.93 in1013.5 mb 0.00 in0.0 mm 0.00 in0.0 mm 0.00 in0.0 mm
05:50 AM 63.3°F17.4°C 63.1°F17.3°C 99% 0.1 mph SSE0.2 kmh SSE 3.1 mph5.0 kmh 29.93 in1013.5 mb 0.00 in0.0 mm 0.00 in0.0 mm 0.00 in0.0 mm
05:40 AM 62.8°F17.1°C 62.5°F16.9°C 99% 0.1 mph SE0.2 kmh SE 3.1 mph5.0 kmh 29.92 in1013.2 mb 0.00 in0.0 mm 0.00 in0.0 mm 0.00 in0.0 mm
05:30 AM 62.6°F17.0°C 62.3°F16.8°C 99% Calm Calm 1.6 mph2.6 kmh 29.92 in1013.2 mb 0.00 in0.0 mm 0.00 in0.0 mm 0.00 in0.0 mm
05:20 AM 62.8°F17.1°C 62.5°F16.9°C 99% Calm Calm -- 29.91 in1012.9 mb 0.00 in0.0 mm 0.00 in0.0 mm 0.00 in0.0 mm
05:10 AM 62.8°F17.1°C 62.5°F16.9°C 99% Calm Calm -- 29.91 in1012.9 mb 0.00 in0.0 mm 0.00 in0.0 mm 0.00 in0.0 mm
05:00 AM 62.6°F17.0°C 62.3°F16.8°C 99% Calm Calm -- 29.91 in1012.9 mb 0.00 in0.0 mm 0.00 in0.0 mm 0.00 in0.0 mm
04:50 AM 62.8°F17.1°C 62.5°F16.9°C 99% Calm Calm 1.6 mph2.6 kmh 29.90 in1012.5 mb 0.00 in0.0 mm 0.00 in0.0 mm 0.00 in0.0 mm
04:40 AM 63.0°F17.2°C 62.7°F17.1°C 99% Calm Calm 1.6 mph2.6 kmh 29.90 in1012.5 mb 0.00 in0.0 mm 0.00 in0.0 mm 0.00 in0.0 mm
04:30 AM 63.1°F17.3°C 62.9°F17.2°C 99% Calm Calm 1.6 mph2.6 kmh 29.89 in1012.2 mb 0.00 in0.0 mm 0.00 in0.0 mm 0.00 in0.0 mm
04:20 AM 63.5°F17.5°C 63.2°F17.3°C 99% Calm Calm 2.2 mph3.5 kmh 29.89 in1012.2 mb 0.00 in0.0 mm 0.00 in0.0 mm 0.00 in0.0 mm
04:10 AM 63.7°F17.6°C 63.4°F17.4°C 99% Calm Calm -- 29.89 in1012.2 mb 0.00 in0.0 mm 0.00 in0.0 mm 0.00 in0.0 mm
04:00 AM 63.7°F17.6°C 63.4°F17.4°C 99% Calm Calm 1.6 mph2.6 kmh 29.88 in1011.9 mb 0.00 in0.0 mm 0.00 in0.0 mm 0.00 in0.0 mm
03:50 AM 63.9°F17.7°C 63.6°F17.6°C 99% Calm Calm 1.6 mph2.6 kmh 29.88 in1011.9 mb 0.00 in0.0 mm 0.00 in0.0 mm 0.00 in0.0 mm
03:40 AM 64.0°F17.8°C 63.8°F17.7°C 99% 0.1 mph SE0.2 kmh SE 2.2 mph3.5 kmh 29.88 in1011.9 mb 0.00 in0.0 mm 0.00 in0.0 mm 0.00 in0.0 mm
03:30 AM 64.0°F17.8°C 63.8°F17.7°C 99% 0.1 mph ESE0.2 kmh ESE 2.2 mph3.5 kmh 29.87 in1011.5 mb 0.00 in0.0 mm 0.00 in0.0 mm 0.00 in0.0 mm
03:20 AM 64.0°F17.8°C 63.8°F17.7°C 99% 0.2 mph ESE0.3 kmh ESE 3.1 mph5.0 kmh 29.87 in1011.5 mb 0.00 in0.0 mm 0.00 in0.0 mm 0.00 in0.0 mm
03:10 AM 64.0°F17.8°C 63.8°F17.7°C 99% Calm Calm 1.6 mph2.6 kmh 29.87 in1011.5 mb 0.00 in0.0 mm 0.00 in0.0 mm 0.00 in0.0 mm
03:00 AM 63.9°F17.7°C 63.6°F17.6°C 99% 0.3 mph ESE0.5 kmh ESE 5.4 mph8.7 kmh 29.87 in1011.5 mb 0.00 in0.0 mm 0.00 in0.0 mm 0.00 in0.0 mm
02:50 AM 63.3°F17.4°C 63.1°F17.3°C 99% Calm Calm 1.6 mph2.6 kmh 29.87 in1011.5 mb 0.00 in0.0 mm 0.00 in0.0 mm 0.00 in0.0 mm
02:40 AM 63.0°F17.2°C 62.4°F16.9°C 98% Calm Calm 1.6 mph2.6 kmh 29.86 in1011.2 mb 0.00 in0.0 mm 0.00 in0.0 mm 0.00 in0.0 mm
02:30 AM 63.0°F17.2°C 62.1°F16.7°C 97% Calm Calm 1.6 mph2.6 kmh 29.86 in1011.2 mb 0.00 in0.0 mm 0.00 in0.0 mm 0.00 in0.0 mm
02:20 AM 63.1°F17.3°C 62.0°F16.7°C 96% Calm Calm 1.6 mph2.6 kmh 29.86 in1011.2 mb 0.00 in0.0 mm 0.00 in0.0 mm 0.00 in0.0 mm
02:10 AM 63.5°F17.5°C 62.4°F16.9°C 96% 0.1 mph SE0.2 kmh SE 2.2 mph3.5 kmh 29.86 in1011.2 mb 0.00 in0.0 mm 0.00 in0.0 mm 0.00 in0.0 mm
02:00 AM 63.3°F17.4°C 61.9°F16.6°C 95% Calm Calm 2.2 mph3.5 kmh 29.85 in1010.8 mb 0.00 in0.0 mm 0.00 in0.0 mm 0.00 in0.0 mm
01:50 AM 63.3°F17.4°C 61.6°F16.4°C 94% Calm Calm 1.6 mph2.6 kmh 29.85 in1010.8 mb 0.00 in0.0 mm 0.00 in0.0 mm 0.00 in0.0 mm
01:40 AM 63.1°F17.3°C 61.1°F16.2°C 93% Calm Calm 2.2 mph3.5 kmh 29.85 in1010.8 mb 0.00 in0.0 mm 0.00 in0.0 mm 0.00 in0.0 mm
01:30 AM 63.1°F17.3°C 60.8°F16.0°C 92% Calm Calm 1.6 mph2.6 kmh 29.84 in1010.5 mb 0.00 in0.0 mm 0.00 in0.0 mm 0.00 in0.0 mm
01:20 AM 63.3°F17.4°C 60.7°F15.9°C 91% 0.3 mph S0.5 kmh S 4.5 mph7.2 kmh 29.84 in1010.5 mb 0.00 in0.0 mm 0.00 in0.0 mm 0.00 in0.0 mm
01:10 AM 63.3°F17.4°C 60.4°F15.8°C 90% 0.1 mph SSE0.2 kmh SSE 1.6 mph2.6 kmh 29.84 in1010.5 mb 0.00 in0.0 mm 0.00 in0.0 mm 0.00 in0.0 mm
01:00 AM 63.7°F17.6°C 60.4°F15.8°C 89% 0.1 mph SSE0.2 kmh SSE 2.2 mph3.5 kmh 29.84 in1010.5 mb 0.00 in0.0 mm 0.00 in0.0 mm 0.00 in0.0 mm
12:50 AM 63.5°F17.5°C 59.9°F15.5°C 88% 0.2 mph SSE0.3 kmh SSE 2.2 mph3.5 kmh 29.83 in1010.2 mb 0.00 in0.0 mm 0.00 in0.0 mm 0.00 in0.0 mm
12:40 AM 63.5°F17.5°C 59.3°F15.2°C 86% 0.1 mph SE0.2 kmh SE 1.6 mph2.6 kmh 29.84 in1010.5 mb 0.00 in0.0 mm 0.00 in0.0 mm 0.00 in0.0 mm
12:30 AM 63.9°F17.7°C 59.3°F15.2°C 85% Calm Calm 1.6 mph2.6 kmh 29.83 in1010.2 mb 0.00 in0.0 mm 0.00 in0.0 mm 0.00 in0.0 mm
12:20 AM 64.2°F17.9°C 59.0°F15.0°C 83% Calm Calm 1.6 mph2.6 kmh 29.83 in1010.2 mb 0.00 in0.0 mm 0.00 in0.0 mm 0.00 in0.0 mm
12:10 AM 64.6°F18.1°C 59.3°F15.2°C 83% 0.1 mph SW0.2 kmh SW 1.6 mph2.6 kmh 29.82 in1009.8 mb 0.00 in0.0 mm 0.00 in0.0 mm 0.00 in0.0 mm
12:00 AM 64.8°F18.2°C 58.8°F14.9°C 81% 0.1 mph S0.2 kmh S 2.2 mph3.5 kmh 29.82 in1009.8 mb 0.00 in0.0 mm 0.00 in0.0 mm 0.00 in0.0 mm